createdAt,value
2022-08-26T00:01:56.149Z,99.90
2022-08-26T00:04:25.756Z,99.90
2022-08-26T00:06:57.155Z,99.90
2022-08-26T00:09:25.348Z,99.90
2022-08-26T00:11:54.441Z,99.90
2022-08-26T00:14:26.040Z,99.90
2022-08-26T00:16:57.743Z,99.90
2022-08-26T00:19:25.369Z,99.90
2022-08-26T00:21:53.018Z,99.90
2022-08-26T00:24:21.777Z,99.90
2022-08-26T00:26:49.997Z,99.90
2022-08-26T00:29:21.227Z,99.90
2022-08-26T00:31:52.307Z,99.90
2022-08-26T00:34:19.838Z,99.90
2022-08-26T00:36:49.366Z,99.90
2022-08-26T00:39:20.521Z,99.90
2022-08-26T00:41:48.760Z,99.90
2022-08-26T00:44:17.827Z,99.90
2022-08-26T00:46:49.074Z,99.90
2022-08-26T00:49:23.019Z,99.90
2022-08-26T00:51:53.698Z,99.90
2022-08-26T00:54:24.357Z,99.90
2022-08-26T00:57:08.683Z,99.90
2022-08-26T00:59:47.855Z,99.90
2022-08-26T01:02:20.314Z,99.90
2022-08-26T01:04:55.778Z,99.90
2022-08-26T01:07:30.136Z,99.90
2022-08-26T01:10:03.866Z,99.90
2022-08-26T01:12:34.418Z,99.90
2022-08-26T01:15:03.215Z,99.90
2022-08-26T01:17:33.739Z,99.90
2022-08-26T01:20:12.917Z,99.90
2022-08-26T01:23:01.645Z,99.90
2022-08-26T01:25:34.304Z,99.90
2022-08-26T01:28:07.073Z,99.90
2022-08-26T01:30:36.887Z,99.90
2022-08-26T01:33:11.080Z,99.90
2022-08-26T01:35:40.585Z,99.90
2022-08-26T01:38:08.694Z,99.90
2022-08-26T01:40:38.488Z,99.90
2022-08-26T01:43:08.558Z,99.90
2022-08-26T01:45:40.414Z,99.90
2022-08-26T01:48:13.922Z,99.90
2022-08-26T01:50:45.081Z,99.90
2022-08-26T01:53:16.411Z,99.90
2022-08-26T01:55:49.143Z,99.90
2022-08-26T01:58:28.187Z,99.90
2022-08-26T02:00:56.036Z,99.90
2022-08-26T02:03:25.344Z,99.90
2022-08-26T02:06:03.914Z,99.90
2022-08-26T02:08:48.198Z,99.90
2022-08-26T02:11:18.562Z,99.90
2022-08-26T02:13:54.895Z,99.90
2022-08-26T02:16:26.564Z,99.90
2022-08-26T02:18:55.314Z,99.90
2022-08-26T02:21:25.065Z,99.90
2022-08-26T02:23:53.629Z,99.90
2022-08-26T02:26:26.933Z,99.90
2022-08-26T02:29:08.753Z,99.90
2022-08-26T02:31:36.342Z,99.90
2022-08-26T02:34:13.677Z,99.90
2022-08-26T02:36:43.283Z,99.90
2022-08-26T02:39:11.250Z,99.90
2022-08-26T02:41:44.927Z,99.90
2022-08-26T02:44:13.226Z,99.90
2022-08-26T02:46:41.861Z,99.90
2022-08-26T02:49:16.245Z,99.90
2022-08-26T02:51:44.605Z,99.90
2022-08-26T02:54:13.389Z,99.90
2022-08-26T02:56:40.976Z,99.90
2022-08-26T02:59:09.570Z,99.90
2022-08-26T03:01:37.102Z,99.90
2022-08-26T03:04:06.634Z,99.90
2022-08-26T03:06:34.294Z,99.90
2022-08-26T03:09:01.825Z,99.90
2022-08-26T03:11:33.198Z,99.90
2022-08-26T03:14:03.797Z,99.90
2022-08-26T03:16:34.237Z,99.90
2022-08-26T03:19:02.932Z,99.90
2022-08-26T03:21:31.286Z,99.90
2022-08-26T03:23:59.720Z,99.90
2022-08-26T03:26:28.749Z,99.90
2022-08-26T03:29:15.767Z,99.90
2022-08-26T03:31:44.227Z,99.90
2022-08-26T03:34:15.061Z,99.90
2022-08-26T03:36:43.661Z,99.90
2022-08-26T03:39:13.141Z,99.90
2022-08-26T03:41:41.531Z,99.90
2022-08-26T03:44:09.067Z,99.90
2022-08-26T03:46:38.484Z,99.90
2022-08-26T03:49:06.118Z,99.90
2022-08-26T03:51:35.364Z,99.90
2022-08-26T03:54:08.386Z,99.90
2022-08-26T03:56:36.778Z,99.90
2022-08-26T03:59:07.587Z,99.90
2022-08-26T04:01:36.887Z,99.90
2022-08-26T04:04:05.409Z,99.90
2022-08-26T04:06:40.018Z,99.90
2022-08-26T04:09:11.726Z,99.90
2022-08-26T04:11:41.981Z,99.90
2022-08-26T04:14:14.370Z,99.90
2022-08-26T04:16:46.204Z,99.90
2022-08-26T04:19:16.072Z,99.90
2022-08-26T04:21:45.193Z,99.90
2022-08-26T04:24:15.751Z,99.90
2022-08-26T04:26:44.003Z,99.90
2022-08-26T04:29:18.342Z,99.90
2022-08-26T04:31:48.198Z,99.90
2022-08-26T04:34:17.116Z,99.90
2022-08-26T04:36:44.891Z,99.90
2022-08-26T04:39:16.750Z,99.90
2022-08-26T04:41:48.573Z,99.90
2022-08-26T04:44:16.683Z,99.90
2022-08-26T04:46:45.322Z,99.90
2022-08-26T04:49:13.836Z,99.90
2022-08-26T04:51:41.362Z,99.90
2022-08-26T04:54:11.703Z,99.90
2022-08-26T04:56:41.957Z,99.90
2022-08-26T04:59:17.175Z,99.90
2022-08-26T05:01:48.650Z,99.90
2022-08-26T05:04:20.598Z,99.90
2022-08-26T05:06:48.925Z,99.90
2022-08-26T05:09:18.551Z,99.90
2022-08-26T05:11:51.867Z,99.90
2022-08-26T05:14:22.369Z,99.90
2022-08-26T05:16:51.029Z,99.90
2022-08-26T05:19:21.165Z,99.90
2022-08-26T05:21:49.500Z,99.90
2022-08-26T05:24:18.269Z,99.90
2022-08-26T05:26:49.533Z,99.90
2022-08-26T05:29:17.133Z,99.90
2022-08-26T05:31:44.600Z,99.90
2022-08-26T05:34:12.646Z,99.90
2022-08-26T05:36:40.224Z,99.90
2022-08-26T05:39:08.259Z,99.90
2022-08-26T05:41:41.113Z,99.90
2022-08-26T05:44:12.718Z,99.90
2022-08-26T05:46:44.827Z,99.90
2022-08-26T05:49:14.166Z,99.90
2022-08-26T05:51:45.208Z,99.90
2022-08-26T05:54:14.052Z,99.90
2022-08-26T05:56:52.244Z,99.90
2022-08-26T05:59:21.380Z,99.90
2022-08-26T06:01:54.832Z,99.90
2022-08-26T06:04:27.197Z,99.90
2022-08-26T06:06:58.612Z,99.90
2022-08-26T06:09:26.923Z,99.90
2022-08-26T06:11:54.538Z,99.90
2022-08-26T06:14:23.040Z,99.90
2022-08-26T06:16:50.530Z,99.90
2022-08-26T06:19:18.285Z,99.90
2022-08-26T06:21:54.218Z,99.90
2022-08-26T06:24:42.109Z,99.90
2022-08-26T06:27:13.487Z,99.90
2022-08-26T06:29:41.828Z,99.90
2022-08-26T06:32:09.314Z,99.90
2022-08-26T06:34:36.800Z,99.90
2022-08-26T06:37:06.439Z,99.90
2022-08-26T06:39:34.469Z,99.90
2022-08-26T06:42:03.258Z,99.90
2022-08-26T06:44:34.606Z,99.90
2022-08-26T06:47:02.112Z,99.90
2022-08-26T06:49:29.613Z,99.90
2022-08-26T06:51:59.917Z,99.90
2022-08-26T06:54:30.294Z,99.90
2022-08-26T06:56:58.481Z,99.90
2022-08-26T06:59:26.179Z,99.90
2022-08-26T07:01:54.766Z,99.50
2022-08-26T07:04:24.557Z,97.70
2022-08-26T07:06:53.748Z,96.30
2022-08-26T07:09:23.813Z,95.30
2022-08-26T07:11:52.043Z,94.90
2022-08-26T07:14:21.784Z,94.30
2022-08-26T07:16:50.347Z,93.30
2022-08-26T07:19:29.031Z,92.20
2022-08-26T07:22:02.189Z,91.70
2022-08-26T07:24:35.195Z,92.00
2022-08-26T07:27:06.304Z,90.80
2022-08-26T07:29:34.970Z,91.20
2022-08-26T07:32:04.053Z,90.70
2022-08-26T07:34:34.997Z,90.10
2022-08-26T07:37:02.413Z,89.80
2022-08-26T07:39:31.528Z,90.00
2022-08-26T07:42:07.861Z,90.00
2022-08-26T07:44:37.716Z,89.30
2022-08-26T07:47:10.228Z,87.00
2022-08-26T07:49:52.718Z,86.00
2022-08-26T07:52:25.348Z,85.30
2022-08-26T07:54:55.254Z,83.60
2022-08-26T07:57:24.327Z,84.00
2022-08-26T07:59:55.118Z,83.70
2022-08-26T08:02:23.934Z,84.40
2022-08-26T08:04:52.281Z,84.60
2022-08-26T08:07:20.184Z,85.00
2022-08-26T08:09:51.355Z,84.80
2022-08-26T08:12:19.983Z,83.60
2022-08-26T08:14:48.336Z,82.10
2022-08-26T08:17:16.443Z,80.80
2022-08-26T08:19:43.890Z,81.00
2022-08-26T08:22:17.980Z,82.10
2022-08-26T08:24:49.883Z,83.60
2022-08-26T08:27:23.651Z,83.20
2022-08-26T08:29:56.837Z,84.40
2022-08-26T08:32:24.313Z,85.00
2022-08-26T08:34:51.834Z,82.90
2022-08-26T08:37:19.483Z,81.90
2022-08-26T08:39:46.887Z,81.90
2022-08-26T08:42:31.480Z,82.40
2022-08-26T08:45:03.687Z,83.70
2022-08-26T08:47:42.962Z,83.00
2022-08-26T08:50:29.083Z,82.50
2022-08-26T08:53:04.466Z,81.50
2022-08-26T08:55:56.422Z,81.10
2022-08-26T08:59:10.430Z,82.00
2022-08-26T09:01:56.258Z,80.50
2022-08-26T09:04:42.377Z,80.70
2022-08-26T09:07:17.756Z,80.30
2022-08-26T09:09:58.551Z,80.40
2022-08-26T09:12:29.976Z,81.20
2022-08-26T09:15:06.564Z,82.40
2022-08-26T09:17:56.358Z,80.60
2022-08-26T09:20:35.640Z,79.50
2022-08-26T09:23:04.502Z,78.20
2022-08-26T09:25:32.582Z,78.80
2022-08-26T09:28:01.355Z,78.20
2022-08-26T09:30:34.829Z,78.80
2022-08-26T09:33:11.154Z,78.20
2022-08-26T09:35:41.656Z,79.00
2022-08-26T09:38:33.826Z,79.30
2022-08-26T09:41:20.441Z,78.60
2022-08-26T09:44:14.737Z,79.00
2022-08-26T09:46:54.364Z,79.10
2022-08-26T09:49:35.567Z,79.10
2022-08-26T09:52:25.997Z,79.40
2022-08-26T09:55:12.513Z,77.80
2022-08-26T09:57:54.904Z,77.10
2022-08-26T10:00:43.677Z,75.80
2022-08-26T10:03:22.576Z,76.80
2022-08-26T10:06:02.692Z,76.90
2022-08-26T10:08:52.011Z,77.20
2022-08-26T10:11:33.657Z,76.40
2022-08-26T10:14:08.084Z,77.50
2022-08-26T10:16:48.618Z,75.70
2022-08-26T10:19:21.412Z,74.60
2022-08-26T10:22:00.806Z,75.70
2022-08-26T10:24:39.645Z,75.10
2022-08-26T10:27:12.116Z,73.80
2022-08-26T10:29:44.114Z,74.60
2022-08-26T10:32:31.364Z,75.50
2022-08-26T10:34:58.925Z,76.80
2022-08-26T10:37:43.722Z,77.10
2022-08-26T10:40:25.345Z,77.60
2022-08-26T10:42:55.970Z,78.00
2022-08-26T10:45:30.135Z,79.30
2022-08-26T10:48:01.668Z,77.70
2022-08-26T10:50:33.446Z,78.70
2022-08-26T10:53:12.029Z,80.10
2022-08-26T10:55:55.925Z,79.20
2022-08-26T10:58:28.223Z,79.10
2022-08-26T11:01:26.364Z,79.30
2022-08-26T11:04:05.248Z,80.00
2022-08-26T11:06:33.092Z,81.30
2022-08-26T11:09:05.599Z,83.00
2022-08-26T11:11:42.167Z,86.60
2022-08-26T11:14:28.699Z,88.10
2022-08-26T11:16:59.002Z,88.40
2022-08-26T11:19:59.514Z,89.70
2022-08-26T11:22:33.673Z,90.40
2022-08-26T11:25:05.110Z,91.30
2022-08-26T11:27:35.504Z,91.70
2022-08-26T11:30:07.504Z,91.70
2022-08-26T11:32:35.046Z,91.90
2022-08-26T11:35:06.748Z,91.50
2022-08-26T11:37:57.259Z,92.20
2022-08-26T11:40:31.414Z,92.50
2022-08-26T11:43:07.657Z,92.90
2022-08-26T11:45:41.797Z,92.80
2022-08-26T11:48:20.969Z,93.50
2022-08-26T11:51:25.246Z,94.10
2022-08-26T11:54:10.314Z,94.00
2022-08-26T11:56:39.426Z,95.00
2022-08-26T11:59:13.063Z,96.00
2022-08-26T12:01:44.591Z,95.80
2022-08-26T12:04:22.053Z,95.60
2022-08-26T12:06:51.843Z,95.40
2022-08-26T12:09:22.691Z,95.40
2022-08-26T12:11:50.416Z,95.60
2022-08-26T12:14:22.246Z,95.60
2022-08-26T12:16:50.268Z,95.50
2022-08-26T12:19:32.684Z,95.40
2022-08-26T12:22:26.635Z,96.10
2022-08-26T12:24:58.666Z,95.40
2022-08-26T12:27:34.355Z,95.20
2022-08-26T12:30:12.316Z,95.10
2022-08-26T12:32:57.821Z,96.30
2022-08-26T12:35:26.894Z,97.10
2022-08-26T12:37:57.896Z,97.00
2022-08-26T12:40:31.507Z,96.90
2022-08-26T12:43:01.957Z,97.10
2022-08-26T12:45:29.475Z,97.20
2022-08-26T12:48:01.251Z,97.80
2022-08-26T12:50:32.593Z,97.60
2022-08-26T12:53:03.684Z,97.40
2022-08-26T12:55:40.062Z,97.00
2022-08-26T12:58:16.786Z,97.50
2022-08-26T13:00:50.373Z,97.70
2022-08-26T13:03:34.793Z,97.80
2022-08-26T13:06:23.192Z,97.60
2022-08-26T13:08:51.705Z,97.70
2022-08-26T13:11:23.619Z,97.40
2022-08-26T13:13:53.320Z,97.50
2022-08-26T13:16:22.340Z,97.70
2022-08-26T13:18:53.095Z,97.40
2022-08-26T13:21:27.018Z,97.60
2022-08-26T13:23:55.133Z,97.70
2022-08-26T13:26:25.646Z,97.90
2022-08-26T13:29:01.490Z,98.10
2022-08-26T13:31:32.573Z,98.30
2022-08-26T13:34:01.557Z,98.50
2022-08-26T13:36:29.334Z,98.20
2022-08-26T13:38:57.162Z,98.40
2022-08-26T13:41:29.238Z,98.80
2022-08-26T13:43:59.498Z,98.80
2022-08-26T13:46:28.200Z,99.40
2022-08-26T13:48:57.330Z,98.70
2022-08-26T13:51:25.919Z,98.70
2022-08-26T13:53:53.495Z,98.30
2022-08-26T13:56:21.479Z,98.60
2022-08-26T13:58:49.540Z,99.00
2022-08-26T14:01:17.836Z,99.10
2022-08-26T14:03:46.185Z,98.20
2022-08-26T14:06:13.844Z,98.20
2022-08-26T14:08:41.816Z,98.90
2022-08-26T14:11:09.828Z,98.60
2022-08-26T14:13:37.683Z,98.30
2022-08-26T14:16:10.456Z,98.60
2022-08-26T14:18:43.640Z,99.00
2022-08-26T14:21:14.353Z,98.70
2022-08-26T14:23:42.393Z,98.70
2022-08-26T14:26:11.659Z,98.50
2022-08-26T14:28:55.926Z,98.60
2022-08-26T14:31:24.490Z,99.30
2022-08-26T14:33:51.955Z,98.00
2022-08-26T14:36:28.309Z,98.20
2022-08-26T14:38:58.202Z,98.90
2022-08-26T14:41:27.066Z,99.20
2022-08-26T14:44:10.340Z,98.90
2022-08-26T14:46:41.168Z,99.80
2022-08-26T14:49:10.663Z,99.60
2022-08-26T14:51:39.697Z,99.50
2022-08-26T14:54:14.236Z,99.00
2022-08-26T14:56:51.527Z,98.90
2022-08-26T14:59:22.442Z,99.20
2022-08-26T15:01:50.168Z,99.90
2022-08-26T15:04:18.356Z,99.90
2022-08-26T15:06:46.251Z,99.80
2022-08-26T15:09:14.348Z,99.60
2022-08-26T15:11:42.012Z,99.90
2022-08-26T15:14:14.684Z,99.60
2022-08-26T15:16:48.362Z,99.40
2022-08-26T15:19:16.701Z,99.90
2022-08-26T15:21:45.628Z,99.90
2022-08-26T15:24:14.717Z,99.90
2022-08-26T15:26:42.553Z,99.90
2022-08-26T15:29:10.282Z,99.90
2022-08-26T15:31:37.936Z,99.90
2022-08-26T15:34:10.995Z,99.90
2022-08-26T15:36:42.731Z,99.90
2022-08-26T15:39:10.978Z,99.90
2022-08-26T15:41:38.440Z,99.90
2022-08-26T15:44:07.271Z,99.90
2022-08-26T15:46:35.618Z,99.90
2022-08-26T15:49:05.306Z,99.90
2022-08-26T15:51:45.668Z,99.90
2022-08-26T15:54:16.633Z,99.90
2022-08-26T15:56:44.782Z,99.90
2022-08-26T15:59:12.559Z,99.90
2022-08-26T16:01:40.166Z,99.90
2022-08-26T16:04:07.750Z,99.90
2022-08-26T16:06:37.488Z,99.90
2022-08-26T16:09:06.127Z,99.90
2022-08-26T16:11:35.919Z,99.90
2022-08-26T16:14:04.857Z,99.90
2022-08-26T16:16:32.789Z,99.90
2022-08-26T16:19:04.259Z,99.90
2022-08-26T16:21:35.138Z,99.90
2022-08-26T16:24:04.611Z,99.90
2022-08-26T16:26:34.426Z,99.90
2022-08-26T16:29:04.525Z,99.90
2022-08-26T16:31:33.240Z,99.90
2022-08-26T16:34:00.722Z,99.90
2022-08-26T16:36:28.157Z,99.90
2022-08-26T16:38:56.521Z,99.90
2022-08-26T16:41:25.701Z,99.90
2022-08-26T16:43:53.761Z,99.90
2022-08-26T16:46:25.554Z,99.90
2022-08-26T16:48:54.251Z,99.90
2022-08-26T16:51:23.485Z,99.90
2022-08-26T16:53:51.763Z,99.90
2022-08-26T16:56:22.791Z,99.90
2022-08-26T16:58:50.678Z,99.90
2022-08-26T17:01:18.392Z,99.90
2022-08-26T17:03:45.918Z,99.90
2022-08-26T17:06:13.605Z,99.90
2022-08-26T17:08:42.062Z,99.90
2022-08-26T17:11:10.438Z,99.90
2022-08-26T17:13:39.053Z,99.90
2022-08-26T17:16:08.917Z,99.90
2022-08-26T17:18:36.733Z,99.90
2022-08-26T17:21:06.777Z,99.90
2022-08-26T17:23:34.951Z,99.90
2022-08-26T17:26:03.065Z,99.90
2022-08-26T17:28:30.722Z,99.90
2022-08-26T17:30:59.307Z,99.90
2022-08-26T17:33:27.724Z,99.90
2022-08-26T17:35:56.310Z,99.90
2022-08-26T17:38:24.309Z,99.90
2022-08-26T17:40:52.200Z,99.90
2022-08-26T17:43:19.770Z,99.90
2022-08-26T17:45:47.348Z,99.90
2022-08-26T17:48:14.990Z,99.90
2022-08-26T17:50:43.619Z,99.90
2022-08-26T17:53:19.135Z,99.90
2022-08-26T17:55:48.719Z,99.90
2022-08-26T17:58:18.692Z,99.90
2022-08-26T18:00:52.291Z,99.90
2022-08-26T18:03:20.137Z,99.90
2022-08-26T18:05:49.528Z,99.90
2022-08-26T18:08:17.420Z,99.90
2022-08-26T18:10:44.943Z,99.90
2022-08-26T18:13:14.823Z,99.90
2022-08-26T18:15:45.427Z,99.90
2022-08-26T18:18:15.043Z,99.90
2022-08-26T18:20:44.039Z,99.90
2022-08-26T18:23:12.667Z,99.90
2022-08-26T18:25:44.151Z,99.90
2022-08-26T18:28:11.608Z,99.90
2022-08-26T18:30:41.419Z,99.90
2022-08-26T18:33:09.509Z,99.90
2022-08-26T18:35:42.155Z,99.90
2022-08-26T18:38:11.847Z,99.90
2022-08-26T18:40:42.125Z,99.90
2022-08-26T18:43:10.071Z,99.90
2022-08-26T18:45:37.590Z,99.90
2022-08-26T18:48:05.479Z,99.90
2022-08-26T18:50:33.070Z,99.90
2022-08-26T18:53:02.486Z,99.90
2022-08-26T18:55:30.029Z,99.90
2022-08-26T18:57:57.455Z,99.90
2022-08-26T19:00:24.901Z,99.90
2022-08-26T19:02:52.472Z,99.90
2022-08-26T19:05:23.490Z,99.90
2022-08-26T19:07:51.897Z,99.90
2022-08-26T19:10:19.501Z,99.90
2022-08-26T19:12:46.995Z,99.90
2022-08-26T19:15:19.374Z,99.90
2022-08-26T19:17:47.846Z,99.90
2022-08-26T19:20:15.349Z,99.90
2022-08-26T19:22:42.840Z,99.90
2022-08-26T19:25:10.590Z,99.90
2022-08-26T19:27:38.258Z,99.90
2022-08-26T19:30:07.181Z,99.90
2022-08-26T19:32:34.605Z,99.90
2022-08-26T19:35:02.186Z,99.90
2022-08-26T19:37:29.637Z,99.90
2022-08-26T19:39:57.231Z,99.90
2022-08-26T19:42:24.742Z,99.90
2022-08-26T19:45:20.199Z,99.90
2022-08-26T19:47:53.898Z,99.90
2022-08-26T19:50:22.350Z,99.90
2022-08-26T19:52:49.930Z,99.90
2022-08-26T19:55:18.732Z,99.90
2022-08-26T19:57:46.342Z,99.90
2022-08-26T20:00:18.030Z,99.90
2022-08-26T20:02:46.704Z,99.90
2022-08-26T20:05:15.898Z,99.90
2022-08-26T20:07:43.690Z,99.90
2022-08-26T20:10:15.252Z,99.90
2022-08-26T20:12:43.431Z,99.90
2022-08-26T20:15:12.948Z,99.90
2022-08-26T20:17:41.113Z,99.90
2022-08-26T20:20:33.386Z,99.90
2022-08-26T20:23:03.629Z,99.90
2022-08-26T20:25:32.755Z,99.90
2022-08-26T20:28:00.873Z,99.90
2022-08-26T20:30:28.605Z,99.90
2022-08-26T20:32:56.177Z,99.90
2022-08-26T20:35:24.022Z,99.90
2022-08-26T20:37:51.619Z,99.90
2022-08-26T20:40:19.145Z,99.90
2022-08-26T20:42:46.638Z,99.90
2022-08-26T20:45:14.165Z,99.90
2022-08-26T20:47:42.759Z,99.90
2022-08-26T20:50:10.461Z,99.90
2022-08-26T20:52:37.958Z,99.90
2022-08-26T20:55:05.930Z,99.90
2022-08-26T20:57:33.655Z,99.90
2022-08-26T21:00:01.262Z,99.90
2022-08-26T21:02:29.006Z,99.90
2022-08-26T21:04:57.601Z,99.90
2022-08-26T21:07:25.149Z,99.90
2022-08-26T21:09:52.652Z,99.90
2022-08-26T21:12:20.208Z,99.90
2022-08-26T21:14:49.621Z,99.90
2022-08-26T21:17:17.527Z,99.90
2022-08-26T21:19:45.078Z,99.90
2022-08-26T21:22:12.538Z,99.90
2022-08-26T21:24:40.150Z,99.90
2022-08-26T21:27:07.719Z,99.90
2022-08-26T21:29:36.351Z,99.90
2022-08-26T21:32:05.065Z,99.90
2022-08-26T21:34:32.652Z,99.90
2022-08-26T21:37:00.603Z,99.90
2022-08-26T21:39:28.239Z,99.90
2022-08-26T21:41:55.797Z,99.90
2022-08-26T21:44:23.282Z,99.90
2022-08-26T21:46:50.840Z,99.90
2022-08-26T21:49:18.370Z,99.90
2022-08-26T21:51:47.924Z,99.90
2022-08-26T21:54:15.661Z,99.90
2022-08-26T21:56:46.665Z,99.90
2022-08-26T21:59:17.729Z,99.90
2022-08-26T22:01:45.902Z,99.90
2022-08-26T22:04:13.457Z,99.90
2022-08-26T22:06:46.770Z,99.90
2022-08-26T22:09:16.133Z,99.90
2022-08-26T22:11:44.417Z,99.90
2022-08-26T22:14:12.328Z,99.90
2022-08-26T22:16:40.199Z,99.90
2022-08-26T22:19:08.281Z,99.90
2022-08-26T22:21:41.485Z,99.90
2022-08-26T22:24:12.132Z,99.90
2022-08-26T22:26:39.635Z,99.90
2022-08-26T22:29:07.626Z,99.90
2022-08-26T22:31:37.855Z,99.90
2022-08-26T22:34:09.010Z,99.90
2022-08-26T22:36:42.857Z,99.90
2022-08-26T22:39:13.356Z,99.90
2022-08-26T22:41:43.019Z,99.90
2022-08-26T22:44:11.871Z,99.90
2022-08-26T22:46:41.066Z,99.90
2022-08-26T22:49:10.779Z,99.90
2022-08-26T22:51:38.811Z,99.90
2022-08-26T22:54:06.933Z,99.90
2022-08-26T22:56:35.127Z,99.90
2022-08-26T22:59:03.743Z,99.90
2022-08-26T23:01:31.376Z,99.90
2022-08-26T23:03:58.856Z,99.90
2022-08-26T23:06:26.398Z,99.90
2022-08-26T23:08:54.031Z,99.90
2022-08-26T23:11:21.494Z,99.90
2022-08-26T23:13:49.043Z,99.90
2022-08-26T23:16:16.775Z,99.90
2022-08-26T23:18:44.312Z,99.90
2022-08-26T23:21:11.965Z,99.90
2022-08-26T23:23:39.621Z,99.90
2022-08-26T23:26:08.121Z,99.90
2022-08-26T23:28:36.846Z,99.90
2022-08-26T23:31:05.672Z,99.90
2022-08-26T23:33:51.619Z,99.90
2022-08-26T23:36:22.828Z,99.90
2022-08-26T23:38:52.783Z,99.90
2022-08-26T23:41:24.418Z,99.90
2022-08-26T23:43:52.883Z,99.90
2022-08-26T23:46:20.758Z,99.90
2022-08-26T23:48:48.384Z,99.90
2022-08-26T23:51:34.744Z,99.90
2022-08-26T23:54:02.279Z,99.90
2022-08-26T23:56:29.817Z,99.90
2022-08-26T23:58:57.256Z,99.90
